sensor_id;sensor_type;location;lat;lon;timestamp;P1;durP1;ratioP1;P2;durP2;ratioP2
72198;SDS011;72266;51.056;16.880;2023-12-20T00:01:44;11.10;;;4.70;;
72198;SDS011;72266;51.056;16.880;2023-12-20T00:04:18;13.00;;;6.00;;
72198;SDS011;72266;51.056;16.880;2023-12-20T00:06:52;12.90;;;5.80;;
72198;SDS011;72266;51.056;16.880;2023-12-20T00:09:25;13.10;;;5.30;;
72198;SDS011;72266;51.056;16.880;2023-12-20T00:11:59;15.90;;;5.90;;
72198;SDS011;72266;51.056;16.880;2023-12-20T00:14:32;13.90;;;5.60;;
72198;SDS011;72266;51.056;16.880;2023-12-20T00:17:06;14.80;;;5.70;;
72198;SDS011;72266;51.056;16.880;2023-12-20T00:19:39;13.30;;;5.70;;
72198;SDS011;72266;51.056;16.880;2023-12-20T00:22:13;13.90;;;6.00;;
72198;SDS011;72266;51.056;16.880;2023-12-20T00:24:47;13.10;;;5.50;;
72198;SDS011;72266;51.056;16.880;2023-12-20T00:27:21;10.60;;;5.00;;
72198;SDS011;72266;51.056;16.880;2023-12-20T00:29:54;12.70;;;5.60;;
72198;SDS011;72266;51.056;16.880;2023-12-20T00:32:28;14.10;;;5.60;;
72198;SDS011;72266;51.056;16.880;2023-12-20T00:35:02;13.90;;;6.10;;
72198;SDS011;72266;51.056;16.880;2023-12-20T00:37:36;13.80;;;6.10;;
72198;SDS011;72266;51.056;16.880;2023-12-20T00:40:10;11.80;;;5.60;;
72198;SDS011;72266;51.056;16.880;2023-12-20T00:42:44;11.50;;;5.10;;
72198;SDS011;72266;51.056;16.880;2023-12-20T00:45:18;12.20;;;5.10;;
72198;SDS011;72266;51.056;16.880;2023-12-20T00:47:52;12.20;;;5.80;;
72198;SDS011;72266;51.056;16.880;2023-12-20T00:50:25;12.40;;;5.40;;
72198;SDS011;72266;51.056;16.880;2023-12-20T00:52:59;12.80;;;5.50;;
72198;SDS011;72266;51.056;16.880;2023-12-20T00:55:33;12.40;;;5.20;;
72198;SDS011;72266;51.056;16.880;2023-12-20T00:58:06;11.50;;;5.00;;
72198;SDS011;72266;51.056;16.880;2023-12-20T01:00:40;14.00;;;5.00;;
72198;SDS011;72266;51.056;16.880;2023-12-20T01:03:14;13.40;;;5.50;;
72198;SDS011;72266;51.056;16.880;2023-12-20T01:05:48;11.70;;;5.20;;
72198;SDS011;72266;51.056;16.880;2023-12-20T01:08:21;13.80;;;5.40;;
72198;SDS011;72266;51.056;16.880;2023-12-20T01:10:55;12.40;;;4.90;;
72198;SDS011;72266;51.056;16.880;2023-12-20T01:13:28;12.80;;;5.00;;
72198;SDS011;72266;51.056;16.880;2023-12-20T01:16:02;10.90;;;4.70;;
72198;SDS011;72266;51.056;16.880;2023-12-20T01:18:37;11.30;;;4.90;;
72198;SDS011;72266;51.056;16.880;2023-12-20T01:21:11;10.60;;;4.80;;
72198;SDS011;72266;51.056;16.880;2023-12-20T01:23:44;11.10;;;4.60;;
72198;SDS011;72266;51.056;16.880;2023-12-20T01:26:18;10.70;;;4.50;;
72198;SDS011;72266;51.056;16.880;2023-12-20T01:28:51;10.30;;;4.40;;
72198;SDS011;72266;51.056;16.880;2023-12-20T01:31:26;11.80;;;4.90;;
72198;SDS011;72266;51.056;16.880;2023-12-20T01:34:00;10.80;;;5.00;;
72198;SDS011;72266;51.056;16.880;2023-12-20T01:36:34;11.70;;;4.20;;
72198;SDS011;72266;51.056;16.880;2023-12-20T01:39:08;10.40;;;4.50;;
72198;SDS011;72266;51.056;16.880;2023-12-20T01:41:56;10.70;;;4.40;;
72198;SDS011;72266;51.056;16.880;2023-12-20T01:44:30;10.60;;;4.10;;
72198;SDS011;72266;51.056;16.880;2023-12-20T01:47:04;10.80;;;4.50;;
72198;SDS011;72266;51.056;16.880;2023-12-20T01:49:39;10.10;;;4.30;;
72198;SDS011;72266;51.056;16.880;2023-12-20T01:52:13;10.50;;;4.40;;
72198;SDS011;72266;51.056;16.880;2023-12-20T01:54:47;10.30;;;4.50;;
72198;SDS011;72266;51.056;16.880;2023-12-20T01:57:21;10.30;;;4.20;;
72198;SDS011;72266;51.056;16.880;2023-12-20T01:59:55;10.50;;;4.20;;
72198;SDS011;72266;51.056;16.880;2023-12-20T02:02:29;11.30;;;4.30;;
72198;SDS011;72266;51.056;16.880;2023-12-20T02:05:03;11.40;;;4.90;;
72198;SDS011;72266;51.056;16.880;2023-12-20T02:07:37;10.70;;;4.60;;
72198;SDS011;72266;51.056;16.880;2023-12-20T02:10:11;9.50;;;4.40;;
72198;SDS011;72266;51.056;16.880;2023-12-20T02:12:45;10.10;;;4.70;;
72198;SDS011;72266;51.056;16.880;2023-12-20T02:15:19;8.80;;;3.70;;
72198;SDS011;72266;51.056;16.880;2023-12-20T02:17:53;9.40;;;4.20;;
72198;SDS011;72266;51.056;16.880;2023-12-20T02:20:27;9.90;;;4.40;;
72198;SDS011;72266;51.056;16.880;2023-12-20T02:23:00;8.70;;;3.80;;
72198;SDS011;72266;51.056;16.880;2023-12-20T02:25:34;9.90;;;4.90;;
72198;SDS011;72266;51.056;16.880;2023-12-20T02:28:07;8.80;;;3.30;;
72198;SDS011;72266;51.056;16.880;2023-12-20T02:30:42;8.50;;;3.10;;
72198;SDS011;72266;51.056;16.880;2023-12-20T02:33:16;8.60;;;2.90;;
72198;SDS011;72266;51.056;16.880;2023-12-20T02:35:49;9.80;;;3.50;;
72198;SDS011;72266;51.056;16.880;2023-12-20T02:38:23;7.40;;;2.70;;
72198;SDS011;72266;51.056;16.880;2023-12-20T02:40:57;7.80;;;2.90;;
72198;SDS011;72266;51.056;16.880;2023-12-20T02:43:31;7.20;;;2.70;;
72198;SDS011;72266;51.056;16.880;2023-12-20T02:46:04;7.70;;;3.10;;
72198;SDS011;72266;51.056;16.880;2023-12-20T02:48:38;7.50;;;2.50;;
72198;SDS011;72266;51.056;16.880;2023-12-20T02:51:12;7.90;;;2.70;;
72198;SDS011;72266;51.056;16.880;2023-12-20T02:53:46;7.10;;;2.30;;
72198;SDS011;72266;51.056;16.880;2023-12-20T02:56:19;6.70;;;2.20;;
72198;SDS011;72266;51.056;16.880;2023-12-20T02:58:53;6.80;;;2.40;;
72198;SDS011;72266;51.056;16.880;2023-12-20T03:01:27;7.30;;;2.30;;
72198;SDS011;72266;51.056;16.880;2023-12-20T03:04:01;7.00;;;2.50;;
72198;SDS011;72266;51.056;16.880;2023-12-20T03:06:35;7.60;;;2.60;;
72198;SDS011;72266;51.056;16.880;2023-12-20T03:09:09;7.70;;;2.70;;
72198;SDS011;72266;51.056;16.880;2023-12-20T03:11:44;6.50;;;2.20;;
72198;SDS011;72266;51.056;16.880;2023-12-20T03:14:17;7.30;;;2.40;;
72198;SDS011;72266;51.056;16.880;2023-12-20T03:16:51;7.50;;;2.40;;
72198;SDS011;72266;51.056;16.880;2023-12-20T03:19:25;7.50;;;2.50;;
72198;SDS011;72266;51.056;16.880;2023-12-20T03:21:59;7.40;;;2.30;;
72198;SDS011;72266;51.056;16.880;2023-12-20T03:24:33;7.40;;;2.40;;
72198;SDS011;72266;51.056;16.880;2023-12-20T03:27:07;6.80;;;2.30;;
72198;SDS011;72266;51.056;16.880;2023-12-20T03:29:40;7.30;;;2.70;;
72198;SDS011;72266;51.056;16.880;2023-12-20T03:32:14;6.90;;;2.10;;
72198;SDS011;72266;51.056;16.880;2023-12-20T03:34:48;6.80;;;2.60;;
72198;SDS011;72266;51.056;16.880;2023-12-20T03:37:21;7.60;;;2.50;;
72198;SDS011;72266;51.056;16.880;2023-12-20T03:39:55;6.80;;;2.20;;
72198;SDS011;72266;51.056;16.880;2023-12-20T03:42:29;6.70;;;2.20;;
72198;SDS011;72266;51.056;16.880;2023-12-20T03:45:04;7.30;;;2.00;;
72198;SDS011;72266;51.056;16.880;2023-12-20T03:47:39;7.50;;;2.40;;
72198;SDS011;72266;51.056;16.880;2023-12-20T03:50:13;6.80;;;2.20;;
72198;SDS011;72266;51.056;16.880;2023-12-20T03:52:47;6.40;;;2.00;;
72198;SDS011;72266;51.056;16.880;2023-12-20T03:55:23;6.50;;;2.00;;
72198;SDS011;72266;51.056;16.880;2023-12-20T03:57:56;5.30;;;1.50;;
72198;SDS011;72266;51.056;16.880;2023-12-20T04:00:30;6.70;;;1.60;;
72198;SDS011;72266;51.056;16.880;2023-12-20T04:03:04;6.80;;;2.10;;
72198;SDS011;72266;51.056;16.880;2023-12-20T04:05:38;5.60;;;1.60;;
72198;SDS011;72266;51.056;16.880;2023-12-20T04:08:12;6.40;;;2.00;;
72198;SDS011;72266;51.056;16.880;2023-12-20T04:10:46;5.80;;;1.70;;
72198;SDS011;72266;51.056;16.880;2023-12-20T04:13:19;6.00;;;1.70;;
72198;SDS011;72266;51.056;16.880;2023-12-20T04:15:53;5.40;;;1.40;;
72198;SDS011;72266;51.056;16.880;2023-12-20T04:18:27;5.70;;;1.70;;
72198;SDS011;72266;51.056;16.880;2023-12-20T04:21:02;5.50;;;1.80;;
72198;SDS011;72266;51.056;16.880;2023-12-20T04:23:38;4.20;;;1.10;;
72198;SDS011;72266;51.056;16.880;2023-12-20T04:26:11;5.50;;;1.60;;
72198;SDS011;72266;51.056;16.880;2023-12-20T04:28:45;3.70;;;1.00;;
72198;SDS011;72266;51.056;16.880;2023-12-20T04:31:22;3.60;;;0.90;;
72198;SDS011;72266;51.056;16.880;2023-12-20T04:33:57;3.60;;;0.90;;
72198;SDS011;72266;51.056;16.880;2023-12-20T04:36:31;3.70;;;0.90;;
72198;SDS011;72266;51.056;16.880;2023-12-20T04:39:05;3.60;;;0.90;;
72198;SDS011;72266;51.056;16.880;2023-12-20T04:41:39;3.60;;;0.80;;
72198;SDS011;72266;51.056;16.880;2023-12-20T04:44:12;2.20;;;0.70;;
72198;SDS011;72266;51.056;16.880;2023-12-20T04:46:46;2.40;;;0.70;;
72198;SDS011;72266;51.056;16.880;2023-12-20T04:49:20;3.20;;;0.80;;
72198;SDS011;72266;51.056;16.880;2023-12-20T04:51:54;3.60;;;0.60;;
72198;SDS011;72266;51.056;16.880;2023-12-20T04:54:27;2.50;;;0.90;;
72198;SDS011;72266;51.056;16.880;2023-12-20T04:57:01;3.20;;;0.80;;
72198;SDS011;72266;51.056;16.880;2023-12-20T04:59:35;3.90;;;1.00;;
72198;SDS011;72266;51.056;16.880;2023-12-20T05:02:08;2.50;;;0.70;;
72198;SDS011;72266;51.056;16.880;2023-12-20T05:04:42;3.40;;;1.10;;
72198;SDS011;72266;51.056;16.880;2023-12-20T05:07:26;3.80;;;0.90;;
72198;SDS011;72266;51.056;16.880;2023-12-20T05:10:17;4.00;;;0.90;;
72198;SDS011;72266;51.056;16.880;2023-12-20T05:13:01;2.90;;;0.80;;
72198;SDS011;72266;51.056;16.880;2023-12-20T05:15:35;2.40;;;0.80;;
72198;SDS011;72266;51.056;16.880;2023-12-20T05:18:12;2.50;;;0.70;;
72198;SDS011;72266;51.056;16.880;2023-12-20T05:20:46;3.30;;;0.90;;
72198;SDS011;72266;51.056;16.880;2023-12-20T05:23:24;3.30;;;0.90;;
72198;SDS011;72266;51.056;16.880;2023-12-20T05:26:10;3.90;;;1.20;;
72198;SDS011;72266;51.056;16.880;2023-12-20T05:28:47;3.50;;;0.80;;
72198;SDS011;72266;51.056;16.880;2023-12-20T05:31:23;5.80;;;1.20;;
72198;SDS011;72266;51.056;16.880;2023-12-20T05:33:56;5.50;;;1.30;;
72198;SDS011;72266;51.056;16.880;2023-12-20T05:36:31;4.40;;;1.10;;
72198;SDS011;72266;51.056;16.880;2023-12-20T05:39:05;6.00;;;1.50;;
72198;SDS011;72266;51.056;16.880;2023-12-20T05:41:39;4.90;;;1.40;;
72198;SDS011;72266;51.056;16.880;2023-12-20T05:44:12;4.90;;;1.30;;
72198;SDS011;72266;51.056;16.880;2023-12-20T05:46:47;4.70;;;1.10;;
72198;SDS011;72266;51.056;16.880;2023-12-20T05:49:22;5.30;;;1.00;;
72198;SDS011;72266;51.056;16.880;2023-12-20T05:51:56;3.90;;;1.10;;
72198;SDS011;72266;51.056;16.880;2023-12-20T05:54:30;5.10;;;1.30;;
72198;SDS011;72266;51.056;16.880;2023-12-20T05:57:04;5.70;;;1.50;;
72198;SDS011;72266;51.056;16.880;2023-12-20T05:59:38;5.30;;;1.20;;
72198;SDS011;72266;51.056;16.880;2023-12-20T06:02:13;4.50;;;1.00;;
72198;SDS011;72266;51.056;16.880;2023-12-20T06:04:47;5.30;;;1.10;;
72198;SDS011;72266;51.056;16.880;2023-12-20T06:07:23;4.50;;;1.20;;
72198;SDS011;72266;51.056;16.880;2023-12-20T06:09:57;7.10;;;1.40;;
72198;SDS011;72266;51.056;16.880;2023-12-20T06:12:31;5.10;;;1.20;;
72198;SDS011;72266;51.056;16.880;2023-12-20T06:15:07;4.40;;;1.10;;
72198;SDS011;72266;51.056;16.880;2023-12-20T06:17:41;5.50;;;1.70;;
72198;SDS011;72266;51.056;16.880;2023-12-20T06:20:15;6.50;;;1.90;;
72198;SDS011;72266;51.056;16.880;2023-12-20T06:22:49;5.40;;;1.50;;
72198;SDS011;72266;51.056;16.880;2023-12-20T06:25:23;6.70;;;1.60;;
72198;SDS011;72266;51.056;16.880;2023-12-20T06:27:57;5.50;;;1.40;;
72198;SDS011;72266;51.056;16.880;2023-12-20T06:30:30;6.40;;;1.80;;
72198;SDS011;72266;51.056;16.880;2023-12-20T06:33:06;7.10;;;1.40;;
72198;SDS011;72266;51.056;16.880;2023-12-20T06:35:42;5.20;;;1.50;;
72198;SDS011;72266;51.056;16.880;2023-12-20T06:38:17;5.00;;;1.40;;
72198;SDS011;72266;51.056;16.880;2023-12-20T06:40:51;5.10;;;1.30;;
72198;SDS011;72266;51.056;16.880;2023-12-20T06:43:25;4.20;;;1.30;;
72198;SDS011;72266;51.056;16.880;2023-12-20T06:46:18;4.90;;;1.00;;
72198;SDS011;72266;51.056;16.880;2023-12-20T06:48:51;4.60;;;1.20;;
72198;SDS011;72266;51.056;16.880;2023-12-20T06:51:25;5.20;;;1.30;;
72198;SDS011;72266;51.056;16.880;2023-12-20T06:54:01;5.10;;;1.30;;
72198;SDS011;72266;51.056;16.880;2023-12-20T06:56:35;4.90;;;1.30;;
72198;SDS011;72266;51.056;16.880;2023-12-20T06:59:08;4.60;;;1.10;;
72198;SDS011;72266;51.056;16.880;2023-12-20T07:01:42;4.20;;;1.10;;
72198;SDS011;72266;51.056;16.880;2023-12-20T07:04:21;3.70;;;1.10;;
72198;SDS011;72266;51.056;16.880;2023-12-20T07:06:55;4.90;;;1.30;;
72198;SDS011;72266;51.056;16.880;2023-12-20T07:09:30;5.40;;;1.40;;
72198;SDS011;72266;51.056;16.880;2023-12-20T07:12:04;7.20;;;1.40;;
72198;SDS011;72266;51.056;16.880;2023-12-20T07:14:38;5.20;;;1.30;;
72198;SDS011;72266;51.056;16.880;2023-12-20T07:17:12;3.60;;;0.80;;
72198;SDS011;72266;51.056;16.880;2023-12-20T07:19:46;5.10;;;1.20;;
72198;SDS011;72266;51.056;16.880;2023-12-20T07:22:20;5.80;;;1.20;;
72198;SDS011;72266;51.056;16.880;2023-12-20T07:24:53;5.40;;;1.10;;
72198;SDS011;72266;51.056;16.880;2023-12-20T07:27:27;4.80;;;1.10;;
72198;SDS011;72266;51.056;16.880;2023-12-20T07:30:01;7.00;;;1.30;;
72198;SDS011;72266;51.056;16.880;2023-12-20T07:32:36;5.60;;;1.00;;
72198;SDS011;72266;51.056;16.880;2023-12-20T07:35:10;5.50;;;1.50;;
72198;SDS011;72266;51.056;16.880;2023-12-20T07:37:43;4.90;;;1.40;;
72198;SDS011;72266;51.056;16.880;2023-12-20T07:40:17;4.70;;;1.00;;
72198;SDS011;72266;51.056;16.880;2023-12-20T07:42:54;4.50;;;1.10;;
72198;SDS011;72266;51.056;16.880;2023-12-20T07:45:28;3.80;;;0.90;;
72198;SDS011;72266;51.056;16.880;2023-12-20T07:48:02;4.70;;;1.00;;
72198;SDS011;72266;51.056;16.880;2023-12-20T07:50:37;5.00;;;1.10;;
72198;SDS011;72266;51.056;16.880;2023-12-20T07:53:11;3.10;;;0.90;;
72198;SDS011;72266;51.056;16.880;2023-12-20T07:55:46;3.90;;;1.10;;
72198;SDS011;72266;51.056;16.880;2023-12-20T07:58:19;3.90;;;0.80;;
72198;SDS011;72266;51.056;16.880;2023-12-20T08:01:10;4.20;;;0.90;;
72198;SDS011;72266;51.056;16.880;2023-12-20T08:03:44;5.40;;;1.00;;
72198;SDS011;72266;51.056;16.880;2023-12-20T08:06:18;5.40;;;1.20;;
72198;SDS011;72266;51.056;16.880;2023-12-20T08:08:53;5.10;;;0.90;;
72198;SDS011;72266;51.056;16.880;2023-12-20T08:11:35;5.70;;;1.20;;
72198;SDS011;72266;51.056;16.880;2023-12-20T08:14:09;4.30;;;1.00;;
72198;SDS011;72266;51.056;16.880;2023-12-20T08:16:44;5.40;;;1.00;;
72198;SDS011;72266;51.056;16.880;2023-12-20T08:19:18;4.60;;;1.30;;
72198;SDS011;72266;51.056;16.880;2023-12-20T08:21:52;5.30;;;0.90;;
72198;SDS011;72266;51.056;16.880;2023-12-20T08:24:30;4.70;;;1.20;;
72198;SDS011;72266;51.056;16.880;2023-12-20T08:27:15;5.30;;;1.10;;
72198;SDS011;72266;51.056;16.880;2023-12-20T08:29:49;4.60;;;0.80;;
72198;SDS011;72266;51.056;16.880;2023-12-20T08:32:27;5.10;;;1.00;;
72198;SDS011;72266;51.056;16.880;2023-12-20T08:35:02;3.50;;;1.10;;
72198;SDS011;72266;51.056;16.880;2023-12-20T08:37:37;3.50;;;0.90;;
72198;SDS011;72266;51.056;16.880;2023-12-20T08:40:13;4.40;;;1.00;;
72198;SDS011;72266;51.056;16.880;2023-12-20T08:42:49;4.70;;;0.90;;
72198;SDS011;72266;51.056;16.880;2023-12-20T08:45:23;4.20;;;0.90;;
72198;SDS011;72266;51.056;16.880;2023-12-20T08:48:00;3.20;;;0.70;;
72198;SDS011;72266;51.056;16.880;2023-12-20T08:50:56;3.30;;;0.70;;
72198;SDS011;72266;51.056;16.880;2023-12-20T08:54:00;4.10;;;0.80;;
72198;SDS011;72266;51.056;16.880;2023-12-20T08:56:59;4.00;;;0.90;;
72198;SDS011;72266;51.056;16.880;2023-12-20T08:59:35;4.10;;;0.90;;
72198;SDS011;72266;51.056;16.880;2023-12-20T09:02:09;3.80;;;0.80;;
72198;SDS011;72266;51.056;16.880;2023-12-20T09:04:43;4.60;;;0.80;;
72198;SDS011;72266;51.056;16.880;2023-12-20T09:07:23;8.30;;;1.10;;
72198;SDS011;72266;51.056;16.880;2023-12-20T09:10:00;4.50;;;1.00;;
72198;SDS011;72266;51.056;16.880;2023-12-20T09:12:34;5.60;;;1.10;;
72198;SDS011;72266;51.056;16.880;2023-12-20T09:15:11;4.40;;;0.80;;
72198;SDS011;72266;51.056;16.880;2023-12-20T09:17:45;5.30;;;1.20;;
72198;SDS011;72266;51.056;16.880;2023-12-20T09:20:19;4.00;;;1.30;;
72198;SDS011;72266;51.056;16.880;2023-12-20T09:22:55;2.90;;;0.70;;
72198;SDS011;72266;51.056;16.880;2023-12-20T09:25:29;3.80;;;1.10;;
72198;SDS011;72266;51.056;16.880;2023-12-20T09:28:03;3.40;;;1.00;;
72198;SDS011;72266;51.056;16.880;2023-12-20T09:30:37;3.50;;;0.90;;
72198;SDS011;72266;51.056;16.880;2023-12-20T09:33:11;4.20;;;1.00;;
72198;SDS011;72266;51.056;16.880;2023-12-20T09:35:47;4.30;;;1.10;;
72198;SDS011;72266;51.056;16.880;2023-12-20T09:38:21;3.60;;;0.80;;
72198;SDS011;72266;51.056;16.880;2023-12-20T09:40:58;5.80;;;1.00;;
72198;SDS011;72266;51.056;16.880;2023-12-20T09:43:35;4.60;;;1.00;;
72198;SDS011;72266;51.056;16.880;2023-12-20T09:46:10;14.30;;;7.10;;
72198;SDS011;72266;51.056;16.880;2023-12-20T09:48:49;8.50;;;4.20;;
72198;SDS011;72266;51.056;16.880;2023-12-20T09:51:24;16.00;;;8.30;;
72198;SDS011;72266;51.056;16.880;2023-12-20T09:53:58;18.00;;;9.40;;
72198;SDS011;72266;51.056;16.880;2023-12-20T09:56:32;16.50;;;8.90;;
72198;SDS011;72266;51.056;16.880;2023-12-20T09:59:07;13.00;;;5.00;;
72198;SDS011;72266;51.056;16.880;2023-12-20T10:01:41;17.00;;;6.50;;
72198;SDS011;72266;51.056;16.880;2023-12-20T10:04:15;20.80;;;8.50;;
72198;SDS011;72266;51.056;16.880;2023-12-20T10:07:03;12.30;;;3.40;;
72198;SDS011;72266;51.056;16.880;2023-12-20T10:09:37;12.40;;;2.80;;
72198;SDS011;72266;51.056;16.880;2023-12-20T10:12:12;16.30;;;4.30;;
72198;SDS011;72266;51.056;16.880;2023-12-20T10:14:46;13.00;;;3.20;;
72198;SDS011;72266;51.056;16.880;2023-12-20T10:17:22;13.60;;;3.10;;
72198;SDS011;72266;51.056;16.880;2023-12-20T10:19:59;11.20;;;3.20;;
72198;SDS011;72266;51.056;16.880;2023-12-20T10:22:34;11.50;;;3.20;;
72198;SDS011;72266;51.056;16.880;2023-12-20T10:25:09;10.00;;;2.50;;
72198;SDS011;72266;51.056;16.880;2023-12-20T10:27:42;10.40;;;2.40;;
72198;SDS011;72266;51.056;16.880;2023-12-20T10:30:16;10.20;;;2.80;;
72198;SDS011;72266;51.056;16.880;2023-12-20T10:35:34;12.60;;;2.80;;
72198;SDS011;72266;51.056;16.880;2023-12-20T10:38:14;13.70;;;3.50;;
72198;SDS011;72266;51.056;16.880;2023-12-20T10:40:48;9.90;;;3.50;;
72198;SDS011;72266;51.056;16.880;2023-12-20T10:43:22;9.40;;;2.10;;
72198;SDS011;72266;51.056;16.880;2023-12-20T10:45:57;7.50;;;1.70;;
72198;SDS011;72266;51.056;16.880;2023-12-20T10:48:32;5.00;;;1.50;;
72198;SDS011;72266;51.056;16.880;2023-12-20T10:51:08;8.40;;;1.60;;
72198;SDS011;72266;51.056;16.880;2023-12-20T10:53:42;6.90;;;1.80;;
72198;SDS011;72266;51.056;16.880;2023-12-20T10:56:20;6.50;;;1.50;;
72198;SDS011;72266;51.056;16.880;2023-12-20T10:58:55;6.30;;;1.60;;
72198;SDS011;72266;51.056;16.880;2023-12-20T11:01:32;7.20;;;1.60;;
72198;SDS011;72266;51.056;16.880;2023-12-20T11:04:06;9.00;;;2.30;;
72198;SDS011;72266;51.056;16.880;2023-12-20T11:06:47;6.20;;;1.40;;
72198;SDS011;72266;51.056;16.880;2023-12-20T11:09:25;5.90;;;1.30;;
72198;SDS011;72266;51.056;16.880;2023-12-20T11:12:05;6.30;;;1.20;;
72198;SDS011;72266;51.056;16.880;2023-12-20T11:14:43;5.70;;;1.30;;
72198;SDS011;72266;51.056;16.880;2023-12-20T11:17:20;5.50;;;1.40;;
72198;SDS011;72266;51.056;16.880;2023-12-20T11:20:08;6.10;;;1.40;;
72198;SDS011;72266;51.056;16.880;2023-12-20T11:22:53;5.90;;;1.50;;
72198;SDS011;72266;51.056;16.880;2023-12-20T11:25:28;6.10;;;1.20;;
72198;SDS011;72266;51.056;16.880;2023-12-20T11:28:12;6.50;;;1.70;;
72198;SDS011;72266;51.056;16.880;2023-12-20T11:30:49;5.50;;;1.20;;
72198;SDS011;72266;51.056;16.880;2023-12-20T11:33:35;5.40;;;1.40;;
72198;SDS011;72266;51.056;16.880;2023-12-20T11:36:14;5.80;;;1.00;;
72198;SDS011;72266;51.056;16.880;2023-12-20T11:38:55;5.00;;;1.50;;
72198;SDS011;72266;51.056;16.880;2023-12-20T11:41:29;7.10;;;1.40;;
72198;SDS011;72266;51.056;16.880;2023-12-20T11:44:06;5.30;;;1.60;;
72198;SDS011;72266;51.056;16.880;2023-12-20T11:46:41;8.10;;;2.00;;
72198;SDS011;72266;51.056;16.880;2023-12-20T11:49:15;7.60;;;1.80;;
72198;SDS011;72266;51.056;16.880;2023-12-20T11:51:49;6.50;;;1.30;;
72198;SDS011;72266;51.056;16.880;2023-12-20T11:54:25;5.20;;;1.30;;
72198;SDS011;72266;51.056;16.880;2023-12-20T11:56:58;4.20;;;1.30;;
72198;SDS011;72266;51.056;16.880;2023-12-20T11:59:32;6.40;;;1.20;;
72198;SDS011;72266;51.056;16.880;2023-12-20T12:02:06;7.10;;;1.30;;
72198;SDS011;72266;51.056;16.880;2023-12-20T12:04:42;7.20;;;1.40;;
72198;SDS011;72266;51.056;16.880;2023-12-20T12:07:17;6.80;;;1.30;;
72198;SDS011;72266;51.056;16.880;2023-12-20T12:09:51;7.40;;;1.20;;
72198;SDS011;72266;51.056;16.880;2023-12-20T12:12:26;3.60;;;0.90;;
72198;SDS011;72266;51.056;16.880;2023-12-20T12:15:00;5.80;;;1.20;;
72198;SDS011;72266;51.056;16.880;2023-12-20T12:17:35;5.00;;;1.30;;
72198;SDS011;72266;51.056;16.880;2023-12-20T12:20:09;5.10;;;1.10;;
72198;SDS011;72266;51.056;16.880;2023-12-20T12:22:43;6.40;;;1.60;;
72198;SDS011;72266;51.056;16.880;2023-12-20T12:25:21;5.90;;;1.40;;
72198;SDS011;72266;51.056;16.880;2023-12-20T12:27:55;5.40;;;1.00;;
72198;SDS011;72266;51.056;16.880;2023-12-20T12:30:30;7.10;;;1.20;;
72198;SDS011;72266;51.056;16.880;2023-12-20T12:33:11;4.50;;;1.20;;
72198;SDS011;72266;51.056;16.880;2023-12-20T12:35:47;6.20;;;1.40;;
72198;SDS011;72266;51.056;16.880;2023-12-20T12:38:21;5.30;;;1.20;;
72198;SDS011;72266;51.056;16.880;2023-12-20T12:40:56;7.70;;;1.60;;
72198;SDS011;72266;51.056;16.880;2023-12-20T12:43:30;6.90;;;1.30;;
72198;SDS011;72266;51.056;16.880;2023-12-20T12:46:05;6.00;;;1.40;;
72198;SDS011;72266;51.056;16.880;2023-12-20T12:48:39;5.80;;;1.20;;
72198;SDS011;72266;51.056;16.880;2023-12-20T12:51:16;4.60;;;1.00;;
72198;SDS011;72266;51.056;16.880;2023-12-20T12:53:51;6.70;;;1.40;;
72198;SDS011;72266;51.056;16.880;2023-12-20T12:56:25;5.00;;;0.90;;
72198;SDS011;72266;51.056;16.880;2023-12-20T12:59:00;5.90;;;1.10;;
72198;SDS011;72266;51.056;16.880;2023-12-20T13:01:34;6.50;;;1.10;;
72198;SDS011;72266;51.056;16.880;2023-12-20T13:04:10;5.70;;;1.20;;
72198;SDS011;72266;51.056;16.880;2023-12-20T13:06:47;9.00;;;1.90;;
72198;SDS011;72266;51.056;16.880;2023-12-20T13:09:22;5.90;;;1.20;;
72198;SDS011;72266;51.056;16.880;2023-12-20T13:11:56;6.30;;;1.40;;
72198;SDS011;72266;51.056;16.880;2023-12-20T13:14:33;6.40;;;1.90;;
72198;SDS011;72266;51.056;16.880;2023-12-20T13:17:08;6.30;;;1.20;;
72198;SDS011;72266;51.056;16.880;2023-12-20T13:19:42;8.50;;;1.80;;
72198;SDS011;72266;51.056;16.880;2023-12-20T13:22:16;6.90;;;1.20;;
72198;SDS011;72266;51.056;16.880;2023-12-20T13:24:53;4.80;;;1.20;;
72198;SDS011;72266;51.056;16.880;2023-12-20T13:27:26;7.20;;;1.70;;
72198;SDS011;72266;51.056;16.880;2023-12-20T13:30:00;7.00;;;1.30;;
72198;SDS011;72266;51.056;16.880;2023-12-20T13:32:35;5.60;;;1.30;;
72198;SDS011;72266;51.056;16.880;2023-12-20T13:35:10;5.10;;;1.10;;
72198;SDS011;72266;51.056;16.880;2023-12-20T13:37:44;6.80;;;1.20;;
72198;SDS011;72266;51.056;16.880;2023-12-20T13:40:18;7.00;;;1.40;;
72198;SDS011;72266;51.056;16.880;2023-12-20T13:42:52;8.90;;;1.60;;
72198;SDS011;72266;51.056;16.880;2023-12-20T13:45:26;8.90;;;1.80;;
72198;SDS011;72266;51.056;16.880;2023-12-20T13:48:00;6.30;;;1.50;;
72198;SDS011;72266;51.056;16.880;2023-12-20T13:50:34;6.60;;;1.50;;
72198;SDS011;72266;51.056;16.880;2023-12-20T13:53:08;8.50;;;2.20;;
72198;SDS011;72266;51.056;16.880;2023-12-20T13:55:42;8.00;;;1.70;;
72198;SDS011;72266;51.056;16.880;2023-12-20T13:58:16;6.60;;;1.80;;
72198;SDS011;72266;51.056;16.880;2023-12-20T14:00:50;6.10;;;1.10;;
72198;SDS011;72266;51.056;16.880;2023-12-20T14:03:24;6.70;;;1.30;;
72198;SDS011;72266;51.056;16.880;2023-12-20T14:05:58;8.50;;;1.40;;
72198;SDS011;72266;51.056;16.880;2023-12-20T14:08:33;6.90;;;1.00;;
72198;SDS011;72266;51.056;16.880;2023-12-20T14:11:07;6.00;;;1.30;;
72198;SDS011;72266;51.056;16.880;2023-12-20T14:13:42;7.30;;;1.60;;
72198;SDS011;72266;51.056;16.880;2023-12-20T14:16:16;7.50;;;1.40;;
72198;SDS011;72266;51.056;16.880;2023-12-20T14:18:50;7.30;;;1.50;;
72198;SDS011;72266;51.056;16.880;2023-12-20T14:21:30;7.80;;;1.90;;
72198;SDS011;72266;51.056;16.880;2023-12-20T14:24:04;7.20;;;1.60;;
72198;SDS011;72266;51.056;16.880;2023-12-20T14:26:40;7.20;;;1.30;;
72198;SDS011;72266;51.056;16.880;2023-12-20T14:29:13;7.90;;;1.50;;
72198;SDS011;72266;51.056;16.880;2023-12-20T14:31:47;9.10;;;2.00;;
72198;SDS011;72266;51.056;16.880;2023-12-20T14:34:20;9.10;;;1.70;;
72198;SDS011;72266;51.056;16.880;2023-12-20T14:36:55;7.30;;;1.80;;
72198;SDS011;72266;51.056;16.880;2023-12-20T14:39:29;9.20;;;1.50;;
72198;SDS011;72266;51.056;16.880;2023-12-20T14:42:03;6.80;;;1.50;;
72198;SDS011;72266;51.056;16.880;2023-12-20T14:44:39;10.50;;;2.30;;
72198;SDS011;72266;51.056;16.880;2023-12-20T14:47:14;8.90;;;1.90;;
72198;SDS011;72266;51.056;16.880;2023-12-20T14:49:48;7.90;;;1.50;;
72198;SDS011;72266;51.056;16.880;2023-12-20T14:52:22;8.50;;;1.80;;
72198;SDS011;72266;51.056;16.880;2023-12-20T14:54:56;10.00;;;2.10;;
72198;SDS011;72266;51.056;16.880;2023-12-20T14:57:30;12.30;;;2.70;;
72198;SDS011;72266;51.056;16.880;2023-12-20T15:00:05;10.40;;;1.90;;
72198;SDS011;72266;51.056;16.880;2023-12-20T15:02:39;8.20;;;2.10;;
72198;SDS011;72266;51.056;16.880;2023-12-20T15:05:13;9.50;;;2.10;;
72198;SDS011;72266;51.056;16.880;2023-12-20T15:07:48;8.90;;;2.00;;
72198;SDS011;72266;51.056;16.880;2023-12-20T15:10:22;7.70;;;1.80;;
72198;SDS011;72266;51.056;16.880;2023-12-20T15:12:56;7.50;;;1.60;;
72198;SDS011;72266;51.056;16.880;2023-12-20T15:15:30;7.20;;;2.00;;
72198;SDS011;72266;51.056;16.880;2023-12-20T15:18:05;10.10;;;2.20;;
72198;SDS011;72266;51.056;16.880;2023-12-20T15:20:41;8.50;;;1.50;;